createdAt,value
2023-03-05T00:01:44.159Z,9.00
2023-03-05T00:04:15.285Z,9.97
2023-03-05T00:06:44.167Z,9.77
2023-03-05T00:09:13.076Z,9.43
2023-03-05T00:11:42.013Z,9.07
2023-03-05T00:14:12.261Z,8.60
2023-03-05T00:16:42.519Z,10.23
2023-03-05T00:19:12.301Z,10.00
2023-03-05T00:21:42.880Z,8.17
2023-03-05T00:24:14.210Z,8.83
2023-03-05T00:26:44.299Z,7.33
2023-03-05T00:29:16.050Z,7.70
2023-03-05T00:31:48.789Z,7.33
2023-03-05T00:34:19.165Z,6.63
2023-03-05T00:36:50.280Z,6.87
2023-03-05T00:39:20.800Z,7.17
2023-03-05T00:41:50.285Z,7.90
2023-03-05T00:44:19.064Z,7.20
2023-03-05T00:46:49.983Z,7.03
2023-03-05T00:49:18.922Z,6.97
2023-03-05T00:51:47.656Z,6.67
2023-03-05T00:54:16.506Z,7.07
2023-03-05T00:56:45.374Z,7.90
2023-03-05T00:59:14.258Z,7.10
2023-03-05T01:01:43.192Z,6.73
2023-03-05T01:04:13.351Z,6.70
2023-03-05T01:06:44.887Z,7.10
2023-03-05T01:09:15.846Z,6.50
2023-03-05T01:11:44.693Z,6.60
2023-03-05T01:14:13.629Z,6.87
2023-03-05T01:16:42.404Z,7.30
2023-03-05T01:19:14.231Z,6.40
2023-03-05T01:21:43.376Z,7.27
2023-03-05T01:24:12.222Z,6.30
2023-03-05T01:26:41.052Z,6.20
2023-03-05T01:29:09.813Z,6.57
2023-03-05T01:31:38.647Z,6.03
2023-03-05T01:34:07.745Z,6.80
2023-03-05T01:36:37.896Z,6.93
2023-03-05T01:39:06.677Z,6.27
2023-03-05T01:41:36.155Z,6.00
2023-03-05T01:44:04.993Z,7.33
2023-03-05T01:46:36.011Z,5.57
2023-03-05T01:49:14.566Z,6.77
2023-03-05T01:51:52.657Z,6.43
2023-03-05T01:54:23.876Z,7.63
2023-03-05T01:56:54.884Z,9.67
2023-03-05T01:59:26.060Z,8.50
2023-03-05T02:01:57.795Z,8.13
2023-03-05T02:04:32.167Z,7.50
2023-03-05T02:07:02.587Z,6.10
2023-03-05T02:09:31.567Z,6.57
2023-03-05T02:12:00.692Z,6.20
2023-03-05T02:14:29.655Z,5.67
2023-03-05T02:16:58.420Z,6.07
2023-03-05T02:19:27.423Z,6.93
2023-03-05T02:21:57.892Z,6.23
2023-03-05T02:24:36.942Z,6.57
2023-03-05T02:27:06.991Z,6.10
2023-03-05T02:29:38.862Z,8.10
2023-03-05T02:32:08.669Z,10.10
2023-03-05T02:34:37.856Z,8.90
2023-03-05T02:37:10.041Z,8.03
2023-03-05T02:39:40.126Z,7.07
2023-03-05T02:42:10.326Z,6.00
2023-03-05T02:44:39.630Z,6.57
2023-03-05T02:47:08.754Z,6.60
2023-03-05T02:49:37.937Z,6.87
2023-03-05T02:52:08.974Z,6.80
2023-03-05T02:54:37.902Z,8.13
2023-03-05T02:57:06.682Z,6.37
2023-03-05T02:59:35.597Z,5.80
2023-03-05T03:02:04.471Z,6.63
2023-03-05T03:04:33.479Z,6.87
2023-03-05T03:07:02.348Z,7.23
2023-03-05T03:09:34.832Z,7.43
2023-03-05T03:12:04.217Z,6.33
2023-03-05T03:14:33.698Z,6.00
2023-03-05T03:17:02.713Z,5.10
2023-03-05T03:19:31.478Z,5.60
2023-03-05T03:22:00.687Z,5.53
2023-03-05T03:24:32.356Z,5.60
2023-03-05T03:27:01.195Z,6.00
2023-03-05T03:29:30.033Z,7.77
2023-03-05T03:31:59.126Z,6.17
2023-03-05T03:34:28.539Z,6.27
2023-03-05T03:36:57.356Z,5.23
2023-03-05T03:39:26.630Z,5.73
2023-03-05T03:41:57.000Z,6.83
2023-03-05T03:44:26.097Z,6.70
2023-03-05T03:46:55.384Z,6.03
2023-03-05T03:49:26.291Z,4.50
2023-03-05T03:51:57.604Z,4.97
2023-03-05T03:54:26.460Z,5.40
2023-03-05T03:56:56.625Z,5.83
2023-03-05T03:59:25.421Z,6.13
2023-03-05T04:01:54.198Z,5.60
2023-03-05T04:04:23.110Z,5.07
2023-03-05T04:06:51.980Z,5.10
2023-03-05T04:09:20.908Z,4.57
2023-03-05T04:11:49.755Z,5.07
2023-03-05T04:14:19.968Z,4.47
2023-03-05T04:16:48.762Z,5.90
2023-03-05T04:19:17.477Z,5.57
2023-03-05T04:21:46.290Z,4.87
2023-03-05T04:24:15.252Z,4.43
2023-03-05T04:26:44.011Z,4.53
2023-03-05T04:29:12.953Z,4.90
2023-03-05T04:31:43.117Z,5.73
2023-03-05T04:34:11.893Z,5.03
2023-03-05T04:36:40.669Z,5.17
2023-03-05T04:39:09.555Z,4.57
2023-03-05T04:41:38.439Z,4.90
2023-03-05T04:44:07.280Z,5.57
2023-03-05T04:46:36.122Z,6.13
2023-03-05T04:49:06.544Z,5.17
2023-03-05T04:51:35.406Z,5.13
2023-03-05T04:54:04.256Z,5.03
2023-03-05T04:56:33.135Z,4.40
2023-03-05T04:59:02.134Z,4.83
2023-03-05T05:01:31.072Z,5.10
2023-03-05T05:03:59.914Z,4.27
2023-03-05T05:06:30.344Z,5.03
2023-03-05T05:08:59.200Z,5.17
2023-03-05T05:11:28.028Z,5.20
2023-03-05T05:13:56.818Z,5.00
2023-03-05T05:16:25.751Z,4.83
2023-03-05T05:18:54.543Z,4.63
2023-03-05T05:21:23.785Z,5.37
2023-03-05T05:23:54.004Z,5.30
2023-03-05T05:26:23.043Z,5.30
2023-03-05T05:28:51.806Z,5.43
2023-03-05T05:31:21.057Z,5.37
2023-03-05T05:33:50.069Z,5.23
2023-03-05T05:36:22.272Z,5.53
2023-03-05T05:38:51.421Z,5.30
2023-03-05T05:41:22.038Z,5.27
2023-03-05T05:43:51.683Z,5.27
2023-03-05T05:46:21.849Z,5.00
2023-03-05T05:48:50.801Z,4.63
2023-03-05T05:51:21.658Z,5.10
2023-03-05T05:53:51.128Z,5.17
2023-03-05T05:56:21.557Z,4.70
2023-03-05T05:58:50.837Z,5.33
2023-03-05T06:01:23.296Z,4.43
2023-03-05T06:03:52.166Z,4.10
2023-03-05T06:06:23.178Z,5.13
2023-03-05T06:08:52.898Z,5.03
2023-03-05T06:11:23.174Z,4.67
2023-03-05T06:13:52.043Z,4.57
2023-03-05T06:16:24.069Z,5.10
2023-03-05T06:18:53.765Z,4.20
2023-03-05T06:21:23.886Z,4.57
2023-03-05T06:23:53.239Z,4.07
2023-03-05T06:26:24.149Z,4.70
2023-03-05T06:28:53.777Z,4.93
2023-03-05T06:31:25.738Z,4.37
2023-03-05T06:33:56.645Z,4.40
2023-03-05T06:36:26.296Z,3.80
2023-03-05T06:38:55.955Z,4.17
2023-03-05T06:41:28.139Z,4.23
2023-03-05T06:43:57.314Z,3.43
2023-03-05T06:46:28.235Z,3.27
2023-03-05T06:48:58.434Z,3.40
2023-03-05T06:51:29.952Z,2.87
2023-03-05T06:54:01.958Z,2.60
2023-03-05T06:56:32.498Z,2.47
2023-03-05T06:59:01.316Z,2.93
2023-03-05T07:01:30.373Z,2.50
2023-03-05T07:04:00.449Z,2.43
2023-03-05T07:06:30.144Z,2.90
2023-03-05T07:09:01.118Z,2.60
2023-03-05T07:11:32.168Z,3.00
2023-03-05T07:14:01.500Z,3.00
2023-03-05T07:16:32.463Z,2.53
2023-03-05T07:19:03.943Z,2.47
2023-03-05T07:21:34.823Z,2.57
2023-03-05T07:24:05.749Z,2.00
2023-03-05T07:26:36.175Z,2.67
2023-03-05T07:29:05.086Z,2.40
2023-03-05T07:31:33.972Z,3.30
2023-03-05T07:34:03.708Z,3.00
2023-03-05T07:36:34.916Z,3.27
2023-03-05T07:39:05.021Z,2.53
2023-03-05T07:41:35.580Z,2.43
2023-03-05T07:44:04.363Z,2.53
2023-03-05T07:46:34.885Z,2.00
2023-03-05T07:49:03.877Z,2.97
2023-03-05T07:51:32.686Z,3.80
2023-03-05T07:54:01.690Z,3.03
2023-03-05T07:56:32.247Z,2.50
2023-03-05T07:59:03.751Z,3.23
2023-03-05T08:01:33.597Z,3.30
2023-03-05T08:04:02.535Z,3.43
2023-03-05T08:06:32.157Z,3.10
2023-03-05T08:09:01.622Z,3.40
2023-03-05T08:11:30.356Z,4.53
2023-03-05T08:13:59.668Z,4.53
2023-03-05T08:16:29.902Z,5.93
2023-03-05T08:18:59.816Z,4.63
2023-03-05T08:21:30.315Z,4.17
2023-03-05T08:23:59.657Z,4.73
2023-03-05T08:26:31.129Z,5.10
2023-03-05T08:29:00.260Z,5.53
2023-03-05T08:31:31.644Z,7.93
2023-03-05T08:34:02.709Z,9.67
2023-03-05T08:36:31.862Z,6.43
2023-03-05T08:39:00.935Z,7.30
2023-03-05T08:41:29.812Z,6.60
2023-03-05T08:43:58.521Z,6.53
2023-03-05T08:46:27.354Z,4.80
2023-03-05T08:48:57.605Z,4.87
2023-03-05T08:51:27.500Z,4.60
2023-03-05T08:53:59.021Z,4.23
2023-03-05T08:56:31.156Z,4.23
2023-03-05T08:58:59.997Z,4.10
2023-03-05T09:01:28.778Z,4.23
2023-03-05T09:03:59.410Z,4.20
2023-03-05T09:06:29.396Z,3.47
2023-03-05T09:08:58.194Z,3.93
2023-03-05T09:11:26.973Z,2.70
2023-03-05T09:13:55.692Z,3.53
2023-03-05T09:16:24.473Z,3.70
2023-03-05T09:18:53.229Z,4.00
2023-03-05T09:21:23.428Z,3.43
2023-03-05T09:23:52.167Z,3.67
2023-03-05T09:26:21.265Z,3.30
2023-03-05T09:28:50.033Z,3.27
2023-03-05T09:31:18.976Z,3.53
2023-03-05T09:33:49.452Z,3.10
2023-03-05T09:36:20.792Z,3.80
2023-03-05T09:38:51.306Z,3.43
2023-03-05T09:41:30.226Z,4.00
2023-03-05T09:44:08.873Z,3.60
2023-03-05T09:46:53.436Z,3.83
2023-03-05T09:49:33.081Z,3.70
2023-03-05T09:52:08.085Z,3.43
2023-03-05T09:54:40.963Z,3.07
2023-03-05T09:57:17.528Z,2.93
2023-03-05T09:59:51.566Z,3.67
2023-03-05T10:02:25.545Z,2.20
2023-03-05T10:04:58.882Z,1.93
2023-03-05T10:07:31.277Z,2.70
2023-03-05T10:10:04.404Z,2.60
2023-03-05T10:12:42.525Z,2.53
2023-03-05T10:15:14.815Z,3.23
2023-03-05T10:18:08.536Z,2.07
2023-03-05T10:20:50.340Z,2.03
2023-03-05T10:23:26.662Z,3.27
2023-03-05T10:26:14.266Z,2.73
2023-03-05T10:28:49.453Z,2.40
2023-03-05T10:31:31.723Z,2.50
2023-03-05T10:34:27.447Z,2.10
2023-03-05T10:37:12.515Z,2.30
2023-03-05T10:39:59.249Z,2.13
2023-03-05T10:42:37.361Z,2.70
2023-03-05T10:45:15.850Z,2.67
2023-03-05T10:47:50.006Z,2.23
2023-03-05T10:50:20.924Z,2.17
2023-03-05T10:52:56.411Z,2.30
2023-03-05T10:55:25.241Z,1.80
2023-03-05T10:57:55.354Z,1.73
2023-03-05T11:00:26.169Z,2.40
2023-03-05T11:02:57.871Z,1.50
2023-03-05T11:05:47.747Z,1.60
2023-03-05T11:08:27.107Z,1.80
2023-03-05T11:11:23.967Z,2.23
2023-03-05T11:13:58.725Z,1.83
2023-03-05T11:16:29.533Z,1.90
2023-03-05T11:19:18.666Z,2.07
2023-03-05T11:21:48.815Z,1.93
2023-03-05T11:24:19.094Z,1.47
2023-03-05T11:26:49.999Z,2.33
2023-03-05T11:29:27.376Z,2.00
2023-03-05T11:31:56.865Z,2.20
2023-03-05T11:34:35.947Z,2.00
2023-03-05T11:37:07.027Z,2.23
2023-03-05T11:39:40.236Z,2.53
2023-03-05T11:42:14.979Z,1.43
2023-03-05T11:44:49.106Z,2.27
2023-03-05T11:47:25.353Z,2.37
2023-03-05T11:49:58.679Z,3.03
2023-03-05T11:52:31.103Z,3.10
2023-03-05T11:55:06.779Z,2.50
2023-03-05T11:57:44.015Z,1.57
2023-03-05T12:00:20.291Z,2.23
2023-03-05T12:02:53.482Z,1.90
2023-03-05T12:05:22.906Z,2.00
2023-03-05T12:07:54.510Z,2.37
2023-03-05T12:10:25.751Z,2.10
2023-03-05T12:13:00.121Z,2.30
2023-03-05T12:16:01.114Z,2.70
2023-03-05T12:18:39.645Z,3.63
2023-03-05T12:21:15.689Z,2.53
2023-03-05T12:23:49.938Z,2.90
2023-03-05T12:26:19.681Z,2.40
2023-03-05T12:28:57.296Z,2.80
2023-03-05T12:31:45.451Z,2.40
2023-03-05T12:34:52.623Z,2.83
2023-03-05T12:37:59.481Z,2.40
2023-03-05T12:40:29.763Z,2.20
2023-03-05T12:43:00.791Z,2.50
2023-03-05T12:45:52.638Z,2.50
2023-03-05T12:48:45.497Z,2.40
2023-03-05T12:51:28.185Z,2.67
2023-03-05T12:53:57.314Z,3.40
2023-03-05T12:56:31.377Z,2.30
2023-03-05T12:59:02.935Z,2.23
2023-03-05T13:01:41.355Z,2.23
2023-03-05T13:04:19.845Z,2.93
2023-03-05T13:06:58.524Z,2.17
2023-03-05T13:09:29.903Z,2.33
2023-03-05T13:11:59.632Z,2.20
2023-03-05T13:14:40.766Z,2.20
2023-03-05T13:17:44.455Z,2.47
2023-03-05T13:20:31.391Z,2.53
2023-03-05T13:23:21.830Z,2.20
2023-03-05T13:26:03.609Z,2.27
2023-03-05T13:28:33.873Z,2.47
2023-03-05T13:31:04.873Z,2.57
2023-03-05T13:33:35.758Z,2.37
2023-03-05T13:36:06.984Z,2.30
2023-03-05T13:38:40.007Z,3.20
2023-03-05T13:41:20.850Z,3.17
2023-03-05T13:43:51.472Z,2.10
2023-03-05T13:46:25.735Z,2.83
2023-03-05T13:48:54.880Z,3.23
2023-03-05T13:51:25.774Z,2.90
2023-03-05T13:53:54.816Z,3.20
2023-03-05T13:56:23.717Z,3.63
2023-03-05T13:58:54.124Z,3.97
2023-03-05T14:01:31.880Z,3.03
2023-03-05T14:04:06.206Z,3.27
2023-03-05T14:06:49.453Z,2.93
2023-03-05T14:09:21.532Z,2.87
2023-03-05T14:11:55.526Z,2.70
2023-03-05T14:14:25.889Z,3.40
2023-03-05T14:16:54.795Z,3.47
2023-03-05T14:19:36.345Z,3.90
2023-03-05T14:22:07.967Z,4.63
2023-03-05T14:24:38.496Z,3.87
2023-03-05T14:27:13.444Z,4.17
2023-03-05T14:29:46.642Z,3.17
2023-03-05T14:32:24.505Z,3.40
2023-03-05T14:34:58.233Z,3.33
2023-03-05T14:37:33.083Z,3.67
2023-03-05T14:40:05.518Z,4.30
2023-03-05T14:42:38.723Z,4.20
2023-03-05T14:45:15.511Z,4.83
2023-03-05T14:48:00.393Z,5.20
2023-03-05T14:50:31.707Z,4.10
2023-03-05T14:53:03.524Z,4.33
2023-03-05T14:55:33.626Z,4.37
2023-03-05T14:58:05.701Z,4.00
2023-03-05T15:00:34.444Z,3.57
2023-03-05T15:03:04.882Z,4.10
2023-03-05T15:05:33.789Z,4.27
2023-03-05T15:08:02.563Z,3.83
2023-03-05T15:10:31.332Z,3.73
2023-03-05T15:13:00.056Z,3.60
2023-03-05T15:15:28.932Z,4.60
2023-03-05T15:17:57.709Z,4.40
2023-03-05T15:20:30.163Z,3.90
2023-03-05T15:22:58.910Z,3.43
2023-03-05T15:25:28.737Z,4.20
2023-03-05T15:27:57.522Z,4.13
2023-03-05T15:30:29.294Z,3.47
2023-03-05T15:33:01.358Z,4.03
2023-03-05T15:35:31.550Z,4.30
2023-03-05T15:38:00.388Z,3.97
2023-03-05T15:40:29.544Z,3.13
2023-03-05T15:42:59.553Z,3.20
2023-03-05T15:45:31.344Z,3.37
2023-03-05T15:48:00.524Z,3.50
2023-03-05T15:50:30.897Z,4.07
2023-03-05T15:53:00.117Z,3.50
2023-03-05T15:55:28.940Z,3.53
2023-03-05T15:57:57.656Z,3.20
2023-03-05T16:00:30.401Z,3.43
2023-03-05T16:02:59.563Z,3.53
2023-03-05T16:05:28.377Z,5.13
2023-03-05T16:08:00.021Z,3.80
2023-03-05T16:10:30.422Z,3.37
2023-03-05T16:13:03.844Z,3.23
2023-03-05T16:15:33.807Z,3.13
2023-03-05T16:18:05.800Z,3.57
2023-03-05T16:20:36.264Z,3.30
2023-03-05T16:23:07.543Z,3.87
2023-03-05T16:25:36.388Z,3.47
2023-03-05T16:28:05.168Z,4.80
2023-03-05T16:30:34.246Z,3.60
2023-03-05T16:33:03.032Z,4.33
2023-03-05T16:35:31.790Z,4.70
2023-03-05T16:38:00.894Z,3.60
2023-03-05T16:40:56.487Z,3.70
2023-03-05T16:43:20.631Z,3.87
2023-03-05T16:45:49.362Z,3.60
2023-03-05T16:48:18.142Z,4.00
2023-03-05T16:50:46.877Z,3.43
2023-03-05T16:53:15.648Z,4.03
2023-03-05T16:55:45.715Z,4.20
2023-03-05T16:58:14.417Z,4.13
2023-03-05T17:00:43.179Z,4.20
2023-03-05T17:03:12.192Z,4.40
2023-03-05T17:05:40.947Z,4.30
2023-03-05T17:08:09.697Z,4.87
2023-03-05T17:10:38.431Z,4.57
2023-03-05T17:13:08.648Z,5.80
2023-03-05T17:15:37.612Z,4.47
2023-03-05T17:18:06.736Z,4.23
2023-03-05T17:20:36.594Z,4.47
2023-03-05T17:23:05.402Z,5.37
2023-03-05T17:25:34.339Z,5.80
2023-03-05T17:28:03.133Z,6.03
2023-03-05T17:30:33.382Z,3.93
2023-03-05T17:33:02.210Z,4.03
2023-03-05T17:35:31.019Z,3.50
2023-03-05T17:37:59.895Z,3.83
2023-03-05T17:40:28.828Z,3.63
2023-03-05T17:42:57.573Z,4.30
2023-03-05T17:45:26.820Z,4.77
2023-03-05T17:47:58.610Z,6.00
2023-03-05T17:50:29.119Z,5.60
2023-03-05T17:52:58.046Z,5.10
2023-03-05T17:55:26.813Z,5.47
2023-03-05T17:57:55.949Z,5.37
2023-03-05T18:00:26.355Z,5.47
2023-03-05T18:02:57.084Z,4.70
2023-03-05T18:05:27.025Z,5.50
2023-03-05T18:07:56.104Z,5.33
2023-03-05T18:10:27.931Z,5.53
2023-03-05T18:12:56.825Z,5.13
2023-03-05T18:15:27.400Z,5.33
2023-03-05T18:17:58.596Z,5.07
2023-03-05T18:20:30.077Z,7.80
2023-03-05T18:22:59.755Z,7.00
2023-03-05T18:25:31.432Z,6.23
2023-03-05T18:28:01.222Z,6.20
2023-03-05T18:30:30.616Z,7.10
2023-03-05T18:33:00.981Z,7.97
2023-03-05T18:35:30.706Z,8.03
2023-03-05T18:37:59.606Z,7.83
2023-03-05T18:40:30.189Z,6.63
2023-03-05T18:43:01.221Z,7.73
2023-03-05T18:45:31.236Z,11.87
2023-03-05T18:48:01.488Z,13.47
2023-03-05T18:50:31.133Z,12.17
2023-03-05T18:52:59.953Z,11.80
2023-03-05T18:55:31.277Z,12.30
2023-03-05T18:58:00.148Z,10.80
2023-03-05T19:00:31.042Z,11.47
2023-03-05T19:03:03.457Z,10.27
2023-03-05T19:05:32.671Z,9.70
2023-03-05T19:08:02.426Z,8.90
2023-03-05T19:10:33.889Z,8.20
2023-03-05T19:13:15.825Z,8.43
2023-03-05T19:16:10.735Z,8.30
2023-03-05T19:18:49.745Z,8.83
2023-03-05T19:21:19.653Z,8.50
2023-03-05T19:23:48.382Z,7.97
2023-03-05T19:26:17.206Z,8.50
2023-03-05T19:28:45.981Z,8.20
2023-03-05T19:31:15.364Z,7.83
2023-03-05T19:33:45.547Z,7.83
2023-03-05T19:36:14.914Z,7.07
2023-03-05T19:38:44.108Z,10.73
2023-03-05T19:41:13.253Z,13.07
2023-03-05T19:43:42.090Z,13.80
2023-03-05T19:46:11.422Z,15.27
2023-03-05T19:48:41.546Z,15.80
2023-03-05T19:51:13.333Z,15.80
2023-03-05T19:53:42.698Z,17.80
2023-03-05T19:56:12.978Z,17.00
2023-03-05T19:58:45.391Z,10.37
2023-03-05T20:01:16.592Z,11.17
2023-03-05T20:03:45.985Z,9.73
2023-03-05T20:06:16.305Z,10.57
2023-03-05T20:08:45.658Z,10.30
2023-03-05T20:11:16.309Z,11.77
2023-03-05T20:13:45.742Z,11.63
2023-03-05T20:16:16.932Z,12.37
2023-03-05T20:18:46.251Z,11.90
2023-03-05T20:21:21.490Z,11.53
2023-03-05T20:23:50.988Z,11.93
2023-03-05T20:26:20.068Z,10.33
2023-03-05T20:28:49.257Z,14.37
2023-03-05T20:31:20.004Z,12.70
2023-03-05T20:33:49.198Z,14.00
2023-03-05T20:36:19.767Z,13.27
2023-03-05T20:38:48.578Z,13.27
2023-03-05T20:41:37.733Z,18.33
2023-03-05T20:44:07.544Z,18.93
2023-03-05T20:46:51.862Z,15.33
2023-03-05T20:49:43.167Z,13.03
2023-03-05T20:52:13.416Z,11.83
2023-03-05T20:54:42.304Z,11.37
2023-03-05T20:57:11.732Z,10.93
2023-03-05T20:59:40.613Z,11.23
2023-03-05T21:02:10.889Z,12.03
2023-03-05T21:04:39.768Z,11.33
2023-03-05T21:07:09.651Z,11.50
2023-03-05T21:09:39.928Z,10.70
2023-03-05T21:12:09.443Z,11.67
2023-03-05T21:14:40.556Z,11.87
2023-03-05T21:17:09.816Z,10.27
2023-03-05T21:19:39.719Z,11.23
2023-03-05T21:22:08.606Z,11.40
2023-03-05T21:24:52.014Z,11.93
2023-03-05T21:27:43.658Z,12.87
2023-03-05T21:30:13.336Z,11.40
2023-03-05T21:32:42.209Z,12.47
2023-03-05T21:35:16.449Z,12.63
2023-03-05T21:37:46.896Z,14.10
2023-03-05T21:40:17.832Z,12.23
2023-03-05T21:42:49.001Z,11.67
2023-03-05T21:45:19.256Z,11.50
2023-03-05T21:47:48.649Z,11.80
2023-03-05T21:50:18.189Z,12.67
2023-03-05T21:52:47.172Z,12.00
2023-03-05T21:55:18.676Z,12.40
2023-03-05T21:57:49.005Z,12.80
2023-03-05T22:00:22.692Z,12.97
2023-03-05T22:02:51.610Z,12.10
2023-03-05T22:05:21.043Z,12.43
2023-03-05T22:07:49.853Z,13.20
2023-03-05T22:10:20.613Z,14.47
2023-03-05T22:12:57.128Z,13.87
2023-03-05T22:15:49.487Z,12.70
2023-03-05T22:18:20.066Z,13.57
2023-03-05T22:20:49.617Z,12.83
2023-03-05T22:23:19.422Z,12.53
2023-03-05T22:25:56.888Z,12.70
2023-03-05T22:28:28.376Z,13.13
2023-03-05T22:30:57.407Z,12.43
2023-03-05T22:33:26.992Z,12.50
2023-03-05T22:35:55.915Z,12.00
2023-03-05T22:38:25.342Z,12.20
2023-03-05T22:40:54.755Z,13.53
2023-03-05T22:43:23.573Z,13.43
2023-03-05T22:45:54.087Z,14.73
2023-03-05T22:48:22.974Z,14.70
2023-03-05T22:50:56.479Z,14.33
2023-03-05T22:53:25.340Z,14.47
2023-03-05T22:55:54.070Z,15.63
2023-03-05T22:58:22.866Z,17.23
2023-03-05T23:00:53.011Z,16.77
2023-03-05T23:03:21.882Z,15.73
2023-03-05T23:05:50.697Z,16.40
2023-03-05T23:08:19.560Z,15.03
2023-03-05T23:10:48.895Z,14.70
2023-03-05T23:13:17.698Z,14.90
2023-03-05T23:15:46.598Z,15.20
2023-03-05T23:18:16.746Z,14.20
2023-03-05T23:20:45.743Z,15.47
2023-03-05T23:23:14.918Z,16.53
2023-03-05T23:25:43.784Z,15.73
2023-03-05T23:28:12.703Z,14.60
2023-03-05T23:30:43.091Z,14.17
2023-03-05T23:33:17.698Z,14.17
2023-03-05T23:35:52.040Z,14.50
2023-03-05T23:38:21.468Z,15.23
2023-03-05T23:40:51.792Z,14.10
2023-03-05T23:43:21.610Z,13.73
2023-03-05T23:45:51.072Z,13.80
2023-03-05T23:48:21.389Z,14.80
2023-03-05T23:50:50.756Z,14.43
2023-03-05T23:53:22.014Z,13.90
2023-03-05T23:55:51.766Z,13.30
2023-03-05T23:58:21.393Z,11.43
